createdAt,value
2019-02-24T00:00:11.065Z,34.30
2019-02-24T00:01:16.401Z,32.20
2019-02-24T00:02:20.022Z,32.48
2019-02-24T00:03:23.770Z,31.45
2019-02-24T00:04:27.383Z,32.65
2019-02-24T00:05:31.014Z,30.80
2019-02-24T00:06:34.651Z,31.42
2019-02-24T00:07:38.243Z,30.23
2019-02-24T00:08:41.916Z,31.00
2019-02-24T00:09:45.490Z,31.93
2019-02-24T00:10:49.129Z,29.87
2019-02-24T00:11:52.717Z,29.75
2019-02-24T00:12:56.408Z,33.08
2019-02-24T00:14:00.034Z,34.63
2019-02-24T00:15:04.411Z,31.50
2019-02-24T00:16:08.071Z,30.88
2019-02-24T00:17:11.698Z,34.75
2019-02-24T00:18:15.339Z,31.48
2019-02-24T00:19:18.947Z,32.95
2019-02-24T00:20:22.668Z,37.38
2019-02-24T00:21:26.259Z,27.45
2019-02-24T00:22:29.914Z,28.07
2019-02-24T00:23:33.594Z,28.35
2019-02-24T00:24:37.167Z,30.82
2019-02-24T00:25:40.830Z,27.27
2019-02-24T00:26:44.451Z,27.70
2019-02-24T00:27:48.147Z,32.45
2019-02-24T00:28:51.785Z,28.98
2019-02-24T00:29:55.426Z,29.18
2019-02-24T00:30:59.036Z,30.05
2019-02-24T00:32:02.699Z,28.62
2019-02-24T00:33:06.347Z,27.52
2019-02-24T00:34:09.926Z,28.80
2019-02-24T00:35:13.623Z,26.55
2019-02-24T00:36:17.214Z,25.43
2019-02-24T00:37:20.862Z,26.02
2019-02-24T00:38:24.518Z,26.65
2019-02-24T00:39:28.103Z,26.40
2019-02-24T00:40:31.705Z,28.62
2019-02-24T00:41:35.291Z,25.77
2019-02-24T00:42:38.946Z,28.80
2019-02-24T00:43:42.643Z,26.85
2019-02-24T00:44:46.297Z,32.48
2019-02-24T00:45:49.888Z,26.68
2019-02-24T00:46:53.517Z,24.52
2019-02-24T00:47:57.172Z,26.15
2019-02-24T00:49:00.778Z,27.55
2019-02-24T00:50:05.861Z,29.25
2019-02-24T00:51:09.450Z,25.52
2019-02-24T00:52:13.155Z,29.55
2019-02-24T00:53:16.758Z,29.75
2019-02-24T00:54:20.380Z,29.35
2019-02-24T00:55:24.034Z,30.88
2019-02-24T00:56:27.692Z,27.15
2019-02-24T00:57:31.318Z,26.12
2019-02-24T00:58:34.975Z,29.98
2019-02-24T00:59:38.639Z,27.58
2019-02-24T01:00:42.307Z,26.77
2019-02-24T01:01:45.937Z,30.45
2019-02-24T01:02:49.521Z,26.23
2019-02-24T01:03:53.106Z,28.98
2019-02-24T01:04:56.755Z,29.27
2019-02-24T01:06:00.378Z,33.53
2019-02-24T01:07:04.065Z,32.55
2019-02-24T01:08:08.025Z,27.82
2019-02-24T01:09:11.663Z,29.55
2019-02-24T01:10:15.255Z,26.10
2019-02-24T01:11:18.852Z,30.80
2019-02-24T01:12:22.460Z,29.95
2019-02-24T01:13:26.044Z,27.50
2019-02-24T01:14:29.719Z,27.75
2019-02-24T01:15:33.278Z,30.00
2019-02-24T01:16:36.898Z,29.92
2019-02-24T01:17:40.521Z,33.38
2019-02-24T01:18:44.138Z,28.02
2019-02-24T01:19:47.901Z,29.15
2019-02-24T01:20:52.002Z,27.07
2019-02-24T01:21:55.976Z,26.95
2019-02-24T01:22:59.628Z,28.07
2019-02-24T01:24:03.234Z,26.48
2019-02-24T01:25:07.149Z,27.80
2019-02-24T01:26:10.832Z,30.02
2019-02-24T01:27:14.523Z,25.37
2019-02-24T01:28:25.106Z,27.75
2019-02-24T01:29:23.834Z,28.12
2019-02-24T01:30:27.494Z,30.48
2019-02-24T01:31:31.104Z,27.22
2019-02-24T01:32:34.776Z,28.27
2019-02-24T01:33:38.430Z,25.85
2019-02-24T01:34:42.029Z,28.17
2019-02-24T01:35:45.700Z,29.15
2019-02-24T01:36:49.331Z,27.65
2019-02-24T01:37:52.963Z,31.70
2019-02-24T01:38:56.584Z,30.80
2019-02-24T01:40:00.261Z,27.30
2019-02-24T01:41:03.816Z,30.55
2019-02-24T01:42:07.473Z,28.27
2019-02-24T01:43:11.113Z,28.25
2019-02-24T01:44:14.822Z,27.90
2019-02-24T01:45:18.454Z,31.02
2019-02-24T01:46:22.045Z,31.48
2019-02-24T01:47:25.663Z,24.47
2019-02-24T01:48:29.317Z,30.45
2019-02-24T01:49:32.992Z,31.25
2019-02-24T01:50:36.612Z,26.40
2019-02-24T01:51:40.202Z,29.10
2019-02-24T01:52:43.834Z,27.77
2019-02-24T01:53:47.448Z,26.82
2019-02-24T01:54:51.180Z,29.52
2019-02-24T01:55:54.846Z,30.40
2019-02-24T01:56:58.472Z,34.05
2019-02-24T01:58:02.070Z,29.05
2019-02-24T01:59:05.645Z,31.27
2019-02-24T02:00:10.673Z,28.17
2019-02-24T02:01:14.308Z,26.57
2019-02-24T02:02:17.937Z,27.70
2019-02-24T02:03:21.516Z,25.32
2019-02-24T02:04:25.110Z,27.05
2019-02-24T02:05:28.718Z,30.12
2019-02-24T02:06:32.353Z,25.08
2019-02-24T02:07:35.984Z,29.70
2019-02-24T02:08:39.582Z,26.15
2019-02-24T02:09:43.194Z,27.00
2019-02-24T02:10:46.783Z,27.10
2019-02-24T02:11:50.404Z,30.80
2019-02-24T02:12:54.063Z,25.30
2019-02-24T02:13:57.656Z,27.13
2019-02-24T02:15:01.236Z,33.15
2019-02-24T02:16:04.935Z,27.05
2019-02-24T02:17:08.591Z,26.95
2019-02-24T02:18:12.248Z,28.32
2019-02-24T02:19:15.910Z,24.98
2019-02-24T02:20:19.543Z,28.83
2019-02-24T02:21:23.128Z,29.18
2019-02-24T02:22:26.752Z,25.60
2019-02-24T02:23:30.402Z,28.67
2019-02-24T02:24:34.013Z,26.57
2019-02-24T02:25:37.652Z,25.57
2019-02-24T02:26:41.276Z,21.00
2019-02-24T02:27:44.878Z,30.70
2019-02-24T02:28:48.484Z,24.82
2019-02-24T02:29:52.138Z,32.05
2019-02-24T02:30:55.729Z,25.12
2019-02-24T02:31:59.377Z,23.98
2019-02-24T02:33:02.974Z,25.10
2019-02-24T02:34:06.628Z,26.55
2019-02-24T02:35:10.212Z,25.80
2019-02-24T02:36:13.797Z,25.72
2019-02-24T02:37:17.467Z,31.33
2019-02-24T02:38:21.058Z,24.05
2019-02-24T02:39:24.685Z,27.27
2019-02-24T02:40:28.365Z,27.00
2019-02-24T02:41:32.028Z,30.50
2019-02-24T02:42:35.653Z,25.80
2019-02-24T02:43:39.300Z,25.48
2019-02-24T02:44:42.884Z,23.92
2019-02-24T02:45:46.491Z,23.85
2019-02-24T02:46:50.087Z,22.87
2019-02-24T02:47:53.757Z,20.48
2019-02-24T02:48:57.393Z,21.23
2019-02-24T02:50:01.010Z,20.68
2019-02-24T02:51:04.612Z,21.25
2019-02-24T02:52:08.208Z,20.05
2019-02-24T02:53:11.796Z,19.20
2019-02-24T02:54:15.452Z,25.43
2019-02-24T02:55:19.030Z,22.52
2019-02-24T02:56:22.666Z,23.30
2019-02-24T02:57:26.326Z,21.02
2019-02-24T02:58:29.993Z,29.07
2019-02-24T02:59:33.614Z,25.12
2019-02-24T03:00:37.335Z,29.00
2019-02-24T03:01:40.930Z,22.60
2019-02-24T03:02:44.519Z,24.95
2019-02-24T03:03:48.094Z,19.90
2019-02-24T03:04:52.145Z,21.50
2019-02-24T03:05:57.432Z,23.30
2019-02-24T03:07:02.745Z,23.85
2019-02-24T03:08:08.053Z,20.88
2019-02-24T03:09:11.746Z,27.07
2019-02-24T03:10:15.366Z,30.00
2019-02-24T03:11:19.089Z,25.52
2019-02-24T03:12:22.662Z,24.45
2019-02-24T03:13:26.302Z,25.92
2019-02-24T03:14:29.888Z,25.27
2019-02-24T03:15:33.560Z,27.60
2019-02-24T03:16:37.163Z,28.25
2019-02-24T03:17:40.776Z,28.17
2019-02-24T03:18:44.405Z,26.20
2019-02-24T03:19:48.036Z,29.70
2019-02-24T03:20:51.627Z,27.50
2019-02-24T03:21:55.235Z,27.32
2019-02-24T03:22:58.841Z,28.70
2019-02-24T03:24:02.491Z,28.45
2019-02-24T03:25:06.255Z,28.45
2019-02-24T03:26:09.860Z,33.53
2019-02-24T03:27:13.534Z,28.20
2019-02-24T03:28:17.150Z,24.98
2019-02-24T03:29:20.795Z,33.40
2019-02-24T03:30:24.453Z,28.35
2019-02-24T03:31:28.137Z,27.07
2019-02-24T03:32:31.696Z,29.30
2019-02-24T03:33:35.361Z,24.07
2019-02-24T03:34:38.940Z,28.80
2019-02-24T03:35:42.536Z,27.58
2019-02-24T03:36:46.125Z,27.32
2019-02-24T03:37:49.730Z,26.48
2019-02-24T03:38:53.380Z,28.02
2019-02-24T03:39:56.955Z,28.00
2019-02-24T03:41:00.555Z,26.37
2019-02-24T03:42:04.229Z,25.05
2019-02-24T03:43:07.829Z,27.10
2019-02-24T03:44:11.495Z,24.95
2019-02-24T03:45:15.170Z,29.23
2019-02-24T03:46:18.757Z,26.05
2019-02-24T03:47:22.366Z,29.92
2019-02-24T03:48:25.957Z,28.67
2019-02-24T03:49:29.610Z,27.22
2019-02-24T03:50:33.202Z,30.77
2019-02-24T03:51:36.789Z,27.85
2019-02-24T03:52:40.380Z,27.35
2019-02-24T03:53:44.055Z,26.62
2019-02-24T03:54:47.701Z,26.00
2019-02-24T03:55:51.371Z,31.40
2019-02-24T03:56:54.954Z,27.35
2019-02-24T03:57:58.669Z,28.45
2019-02-24T03:59:02.462Z,28.23
2019-02-24T04:00:07.285Z,23.15
2019-02-24T04:01:10.946Z,33.65
2019-02-24T04:02:14.524Z,28.60
2019-02-24T04:03:18.260Z,28.32
2019-02-24T04:04:22.055Z,27.80
2019-02-24T04:05:25.652Z,27.77
2019-02-24T04:06:29.280Z,26.50
2019-02-24T04:07:32.863Z,29.20
2019-02-24T04:08:36.500Z,25.17
2019-02-24T04:09:40.092Z,26.42
2019-02-24T04:10:43.693Z,29.77
2019-02-24T04:11:47.294Z,24.40
2019-02-24T04:12:50.961Z,28.65
2019-02-24T04:13:54.645Z,25.27
2019-02-24T04:14:58.314Z,23.42
2019-02-24T04:16:01.991Z,28.52
2019-02-24T04:17:05.685Z,25.72
2019-02-24T04:18:09.305Z,25.48
2019-02-24T04:19:12.987Z,22.45
2019-02-24T04:20:16.656Z,20.52
2019-02-24T04:21:20.267Z,26.65
2019-02-24T04:22:23.834Z,23.02
2019-02-24T04:23:27.421Z,20.88
2019-02-24T04:24:31.122Z,23.70
2019-02-24T04:25:34.708Z,24.20
2019-02-24T04:26:38.292Z,20.57
2019-02-24T04:27:41.889Z,21.85
2019-02-24T04:28:45.490Z,23.85
2019-02-24T04:29:49.134Z,24.40
2019-02-24T04:30:52.788Z,22.90
2019-02-24T04:31:56.398Z,18.95
2019-02-24T04:32:59.977Z,22.48
2019-02-24T04:34:03.593Z,21.02
2019-02-24T04:35:07.168Z,22.62
2019-02-24T04:36:10.814Z,23.18
2019-02-24T04:37:14.391Z,24.35
2019-02-24T04:38:18.049Z,22.25
2019-02-24T04:39:21.695Z,24.85
2019-02-24T04:40:25.317Z,25.20
2019-02-24T04:41:28.903Z,24.10
2019-02-24T04:42:32.521Z,26.33
2019-02-24T04:43:36.109Z,24.75
2019-02-24T04:44:39.811Z,22.58
2019-02-24T04:45:43.390Z,22.45
2019-02-24T04:46:46.992Z,27.13
2019-02-24T04:47:50.623Z,24.05
2019-02-24T04:48:54.239Z,25.40
2019-02-24T04:49:57.900Z,22.30
2019-02-24T04:51:01.550Z,22.95
2019-02-24T04:52:05.202Z,22.65
2019-02-24T04:53:08.828Z,26.17
2019-02-24T04:54:12.444Z,23.15
2019-02-24T04:55:16.042Z,28.52
2019-02-24T04:56:19.674Z,24.65
2019-02-24T04:57:23.310Z,24.07
2019-02-24T04:58:26.905Z,27.60
2019-02-24T04:59:35.059Z,24.80
2019-02-24T05:00:35.795Z,27.17
2019-02-24T05:01:39.453Z,26.55
2019-02-24T05:02:43.041Z,21.70
2019-02-24T05:03:46.645Z,27.90
2019-02-24T05:04:50.343Z,30.35
2019-02-24T05:05:53.909Z,26.15
2019-02-24T05:06:57.563Z,35.13
2019-02-24T05:08:01.153Z,26.45
2019-02-24T05:09:05.041Z,25.75
2019-02-24T05:10:08.730Z,25.88
2019-02-24T05:11:12.734Z,29.30
2019-02-24T05:12:16.328Z,26.10
2019-02-24T05:13:20.017Z,25.08
2019-02-24T05:14:23.690Z,25.25
2019-02-24T05:15:27.279Z,24.27
2019-02-24T05:16:30.896Z,26.37
2019-02-24T05:17:34.473Z,26.10
2019-02-24T05:18:38.124Z,26.33
2019-02-24T05:19:41.741Z,26.45
2019-02-24T05:20:45.349Z,25.92
2019-02-24T05:21:49.066Z,23.45
2019-02-24T05:22:52.663Z,27.85
2019-02-24T05:23:56.315Z,24.92
2019-02-24T05:24:59.929Z,24.65
2019-02-24T05:26:03.604Z,22.90
2019-02-24T05:27:07.197Z,24.70
2019-02-24T05:28:10.816Z,22.90
2019-02-24T05:29:14.475Z,25.70
2019-02-24T05:30:18.096Z,27.05
2019-02-24T05:31:21.694Z,23.62
2019-02-24T05:32:25.277Z,25.77
2019-02-24T05:33:28.898Z,30.90
2019-02-24T05:34:32.589Z,24.25
2019-02-24T05:35:36.277Z,26.33
2019-02-24T05:36:40.012Z,21.45
2019-02-24T05:37:43.598Z,26.15
2019-02-24T05:38:47.219Z,24.37
2019-02-24T05:39:50.876Z,23.07
2019-02-24T05:40:54.496Z,26.65
2019-02-24T05:41:58.107Z,23.87
2019-02-24T05:43:01.703Z,24.72
2019-02-24T05:44:05.310Z,28.55
2019-02-24T05:45:09.019Z,22.98
2019-02-24T05:46:12.606Z,27.98
2019-02-24T05:47:16.221Z,20.30
2019-02-24T05:48:19.849Z,24.63
2019-02-24T05:49:23.452Z,24.57
2019-02-24T05:50:27.126Z,25.05
2019-02-24T05:51:30.751Z,22.67
2019-02-24T05:52:34.382Z,22.62
2019-02-24T05:53:37.978Z,22.65
2019-02-24T05:54:41.596Z,23.75
2019-02-24T05:55:45.258Z,22.90
2019-02-24T05:56:48.885Z,19.67
2019-02-24T05:57:52.559Z,22.02
2019-02-24T05:58:56.224Z,19.27
2019-02-24T05:59:59.821Z,17.98
2019-02-24T06:01:03.460Z,19.60
2019-02-24T06:02:07.103Z,18.50
2019-02-24T06:03:10.761Z,16.30
2019-02-24T06:04:14.382Z,19.87
2019-02-24T06:05:18.049Z,20.48
2019-02-24T06:06:21.644Z,18.77
2019-02-24T06:07:25.239Z,16.23
2019-02-24T06:08:28.882Z,18.55
2019-02-24T06:09:32.478Z,15.08
2019-02-24T06:10:36.153Z,17.80
2019-02-24T06:11:39.767Z,17.65
2019-02-24T06:12:43.456Z,16.57
2019-02-24T06:13:47.061Z,18.17
2019-02-24T06:14:50.653Z,16.35
2019-02-24T06:15:54.270Z,19.20
2019-02-24T06:16:57.957Z,17.82
2019-02-24T06:18:01.598Z,18.07
2019-02-24T06:19:05.207Z,19.48
2019-02-24T06:20:08.884Z,19.35
2019-02-24T06:21:12.610Z,17.55
2019-02-24T06:22:16.239Z,19.73
2019-02-24T06:23:19.907Z,16.90
2019-02-24T06:24:23.495Z,18.30
2019-02-24T06:25:27.123Z,17.20
2019-02-24T06:26:30.706Z,16.12
2019-02-24T06:27:34.313Z,13.25
2019-02-24T06:28:37.981Z,13.80
2019-02-24T06:29:41.564Z,16.27
2019-02-24T06:30:45.171Z,16.32
2019-02-24T06:31:48.763Z,15.18
2019-02-24T06:32:52.368Z,19.92
2019-02-24T06:33:56.035Z,19.12
2019-02-24T06:34:59.638Z,20.20
2019-02-24T06:36:03.247Z,19.57
2019-02-24T06:37:06.995Z,17.52
2019-02-24T06:38:10.586Z,16.65
2019-02-24T06:39:14.563Z,16.27
2019-02-24T06:40:18.288Z,22.40
2019-02-24T06:41:21.918Z,20.97
2019-02-24T06:42:25.517Z,25.27
2019-02-24T06:43:29.144Z,23.05
2019-02-24T06:44:32.795Z,19.67
2019-02-24T06:45:36.418Z,22.07
2019-02-24T06:46:40.025Z,19.48
2019-02-24T06:47:43.625Z,16.17
2019-02-24T06:48:47.219Z,16.97
2019-02-24T06:49:50.924Z,21.20
2019-02-24T06:51:02.165Z,19.95
2019-02-24T06:52:05.768Z,21.93
2019-02-24T06:53:09.379Z,20.62
2019-02-24T06:54:12.982Z,18.20
2019-02-24T06:55:16.617Z,23.20
2019-02-24T06:56:20.218Z,14.47
2019-02-24T06:57:23.843Z,19.60
2019-02-24T06:58:27.426Z,14.68
2019-02-24T06:59:31.045Z,14.30
2019-02-24T07:00:34.664Z,21.50
2019-02-24T07:01:38.247Z,15.45
2019-02-24T07:02:41.901Z,17.57
2019-02-24T07:03:45.505Z,15.45
2019-02-24T07:04:49.100Z,18.92
2019-02-24T07:05:52.756Z,20.23
2019-02-24T07:06:56.403Z,17.42
2019-02-24T07:07:59.986Z,19.23
2019-02-24T07:09:04.696Z,22.07
2019-02-24T07:10:08.382Z,18.02
2019-02-24T07:11:12.017Z,17.30
2019-02-24T07:12:15.622Z,18.50
2019-02-24T07:13:19.207Z,17.40
2019-02-24T07:14:22.810Z,19.32
2019-02-24T07:15:26.526Z,20.00
2019-02-24T07:16:30.139Z,17.67
2019-02-24T07:17:33.717Z,16.80
2019-02-24T07:18:37.361Z,17.73
2019-02-24T07:19:41.000Z,21.68
2019-02-24T07:20:44.597Z,22.80
2019-02-24T07:21:48.217Z,18.02
2019-02-24T07:22:51.862Z,18.85
2019-02-24T07:23:55.570Z,18.92
2019-02-24T07:24:59.158Z,17.65
2019-02-24T07:26:02.767Z,16.07
2019-02-24T07:27:06.417Z,22.90
2019-02-24T07:28:10.091Z,23.27
2019-02-24T07:29:13.686Z,37.33
2019-02-24T07:30:23.582Z,53.15
2019-02-24T07:31:22.537Z,59.20
2019-02-24T07:32:26.196Z,52.50
2019-02-24T07:33:29.828Z,41.20
2019-02-24T07:34:33.429Z,34.05
2019-02-24T07:35:37.043Z,26.17
2019-02-24T07:36:40.709Z,24.23
2019-02-24T07:37:44.361Z,23.70
2019-02-24T07:38:48.135Z,22.10
2019-02-24T07:39:51.918Z,24.12
2019-02-24T07:40:55.595Z,23.90
2019-02-24T07:41:59.312Z,25.30
2019-02-24T07:43:02.989Z,24.60
2019-02-24T07:44:06.662Z,24.25
2019-02-24T07:45:10.426Z,26.95
2019-02-24T07:46:13.997Z,26.33
2019-02-24T07:47:17.699Z,20.70
2019-02-24T07:48:21.363Z,28.70
2019-02-24T07:49:24.948Z,24.40
2019-02-24T07:50:28.651Z,25.65
2019-02-24T07:51:32.250Z,27.58
2019-02-24T07:52:36.012Z,25.85
2019-02-24T07:53:39.610Z,24.92
2019-02-24T07:54:43.209Z,22.40
2019-02-24T07:55:46.874Z,21.33
2019-02-24T07:56:50.695Z,23.70
2019-02-24T07:57:54.351Z,19.67
2019-02-24T07:58:58.051Z,20.43
2019-02-24T08:00:01.830Z,19.42
2019-02-24T08:01:05.481Z,20.23
2019-02-24T08:02:09.095Z,19.32
2019-02-24T08:03:12.685Z,17.80
2019-02-24T08:04:16.325Z,19.55
2019-02-24T08:05:19.941Z,20.97
2019-02-24T08:06:23.536Z,18.57
2019-02-24T08:07:27.115Z,18.92
2019-02-24T08:08:30.706Z,19.20
2019-02-24T08:09:34.368Z,23.10
2019-02-24T08:10:38.005Z,33.67
2019-02-24T08:11:41.706Z,42.27
2019-02-24T08:12:45.326Z,37.83
2019-02-24T08:13:54.840Z,14.30
2019-02-24T08:14:58.504Z,15.13
2019-02-24T08:16:02.086Z,21.57
2019-02-24T08:17:05.755Z,18.42
2019-02-24T08:18:09.359Z,20.62
2019-02-24T08:19:12.963Z,17.95
2019-02-24T08:20:16.579Z,18.92
2019-02-24T08:21:20.205Z,18.30
2019-02-24T08:22:23.893Z,18.52
2019-02-24T08:23:27.522Z,19.85
2019-02-24T08:24:31.146Z,17.07
2019-02-24T08:25:34.819Z,18.25
2019-02-24T08:26:38.463Z,17.30
2019-02-24T08:27:42.093Z,16.25
2019-02-24T08:28:45.671Z,16.35
2019-02-24T08:29:49.264Z,16.73
2019-02-24T08:30:53.062Z,16.87
2019-02-24T08:31:56.672Z,20.55
2019-02-24T08:33:00.305Z,20.40
2019-02-24T08:34:03.959Z,16.05
2019-02-24T08:35:08.186Z,18.55
2019-02-24T08:36:11.776Z,16.87
2019-02-24T08:37:15.489Z,22.93
2019-02-24T08:38:19.118Z,20.85
2019-02-24T08:39:22.720Z,15.72
2019-02-24T08:40:26.308Z,17.48
2019-02-24T08:41:29.914Z,15.15
2019-02-24T08:42:33.544Z,13.83
2019-02-24T08:43:37.149Z,15.45
2019-02-24T08:44:40.737Z,18.40
2019-02-24T08:45:44.374Z,11.90
2019-02-24T08:46:47.959Z,15.10
2019-02-24T08:47:51.590Z,16.73
2019-02-24T08:48:55.177Z,14.68
2019-02-24T08:49:58.764Z,14.68
2019-02-24T08:51:02.368Z,15.68
2019-02-24T08:52:06.008Z,14.58
2019-02-24T08:53:09.655Z,13.38
2019-02-24T08:54:13.281Z,10.88
2019-02-24T08:55:16.964Z,15.65
2019-02-24T08:56:20.537Z,13.22
2019-02-24T08:57:24.184Z,14.50
2019-02-24T08:58:27.784Z,23.47
2019-02-24T08:59:31.406Z,12.80
2019-02-24T09:00:34.942Z,12.28
2019-02-24T09:01:38.540Z,11.48
2019-02-24T09:02:42.186Z,12.13
2019-02-24T09:03:45.779Z,9.28
2019-02-24T09:04:49.457Z,9.63
2019-02-24T09:05:53.039Z,8.88
2019-02-24T09:06:56.618Z,9.20
2019-02-24T09:08:00.218Z,9.68
2019-02-24T09:09:04.179Z,9.15
2019-02-24T09:10:09.280Z,10.00
2019-02-24T09:11:12.868Z,9.33
2019-02-24T09:12:16.472Z,8.48
2019-02-24T09:13:20.042Z,8.70
2019-02-24T09:14:23.651Z,7.00
2019-02-24T09:15:27.309Z,10.80
2019-02-24T09:16:30.912Z,9.30
2019-02-24T09:17:34.491Z,12.00
2019-02-24T09:18:38.101Z,8.98
2019-02-24T09:19:41.708Z,10.80
2019-02-24T09:20:45.346Z,8.93
2019-02-24T09:21:48.940Z,9.98
2019-02-24T09:22:52.562Z,11.45
2019-02-24T09:23:56.147Z,12.20
2019-02-24T09:24:59.746Z,13.22
2019-02-24T09:26:03.379Z,11.65
2019-02-24T09:27:06.979Z,11.88
2019-02-24T09:28:10.595Z,12.15
2019-02-24T09:29:14.241Z,15.15
2019-02-24T09:30:17.853Z,12.45
2019-02-24T09:31:21.492Z,12.35
2019-02-24T09:32:25.186Z,12.78
2019-02-24T09:33:28.774Z,13.83
2019-02-24T09:34:32.379Z,12.55
2019-02-24T09:35:35.949Z,15.40
2019-02-24T09:36:39.639Z,10.55
2019-02-24T09:37:43.220Z,10.60
2019-02-24T09:38:46.841Z,10.65
2019-02-24T09:39:50.430Z,10.23
2019-02-24T09:40:54.042Z,9.10
2019-02-24T09:41:57.696Z,11.33
2019-02-24T09:43:01.275Z,8.75
2019-02-24T09:44:04.905Z,9.10
2019-02-24T09:45:10.584Z,10.32
2019-02-24T09:46:14.176Z,7.62
2019-02-24T09:47:17.755Z,9.98
2019-02-24T09:48:21.416Z,9.88
2019-02-24T09:49:25.052Z,10.90
2019-02-24T09:50:28.652Z,11.18
2019-02-24T09:51:32.272Z,9.95
2019-02-24T09:52:35.847Z,6.90
2019-02-24T09:53:39.428Z,7.37
2019-02-24T09:54:43.121Z,11.00
2019-02-24T09:55:46.741Z,10.68
2019-02-24T09:56:50.345Z,12.45
2019-02-24T09:57:53.921Z,8.10
2019-02-24T09:58:57.502Z,7.30
2019-02-24T10:00:01.108Z,10.23
2019-02-24T10:01:10.545Z,11.30
2019-02-24T10:02:10.125Z,7.20
2019-02-24T10:03:13.727Z,10.32
2019-02-24T10:04:17.337Z,9.15
2019-02-24T10:05:20.925Z,7.25
2019-02-24T10:06:24.569Z,8.83
2019-02-24T10:07:28.239Z,8.05
2019-02-24T10:08:31.822Z,8.68
2019-02-24T10:09:35.415Z,10.15
2019-02-24T10:10:39.008Z,7.78
2019-02-24T10:11:42.643Z,9.35
2019-02-24T10:12:46.301Z,9.95
2019-02-24T10:13:51.265Z,8.15
2019-02-24T10:14:54.909Z,12.00
2019-02-24T10:15:58.564Z,9.65
2019-02-24T10:17:02.171Z,8.45
2019-02-24T10:18:05.765Z,10.75
2019-02-24T10:19:09.375Z,9.25
2019-02-24T10:20:13.427Z,18.52
2019-02-24T10:21:17.066Z,11.38
2019-02-24T10:22:20.677Z,14.13
2019-02-24T10:23:24.260Z,9.10
2019-02-24T10:24:27.842Z,9.43
2019-02-24T10:25:31.442Z,9.53
2019-02-24T10:26:35.097Z,10.30
2019-02-24T10:27:38.751Z,13.28
2019-02-24T10:28:42.324Z,9.30
2019-02-24T10:29:45.978Z,11.08
2019-02-24T10:30:49.621Z,7.55
2019-02-24T10:31:53.242Z,11.20
2019-02-24T10:32:56.853Z,10.08
2019-02-24T10:34:00.448Z,9.95
2019-02-24T10:35:04.646Z,10.78
2019-02-24T10:36:08.271Z,10.45
2019-02-24T10:37:11.872Z,11.18
2019-02-24T10:38:15.451Z,12.55
2019-02-24T10:39:19.128Z,11.70
2019-02-24T10:40:22.750Z,9.05
2019-02-24T10:41:26.393Z,12.30
2019-02-24T10:42:30.039Z,12.05
2019-02-24T10:43:33.629Z,11.68
2019-02-24T10:44:37.230Z,13.18
2019-02-24T10:45:40.851Z,11.25
2019-02-24T10:46:44.554Z,9.10
2019-02-24T10:47:48.239Z,11.70
2019-02-24T10:48:51.865Z,9.48
2019-02-24T10:49:55.502Z,12.88
2019-02-24T10:50:59.157Z,10.88
2019-02-24T10:52:02.858Z,13.10
2019-02-24T10:53:06.525Z,11.83
2019-02-24T10:54:10.133Z,10.72
2019-02-24T10:55:13.869Z,14.68
2019-02-24T10:56:17.459Z,10.50
2019-02-24T10:57:21.052Z,13.60
2019-02-24T10:58:24.753Z,12.43
2019-02-24T10:59:28.374Z,10.38
2019-02-24T11:00:32.031Z,12.18
2019-02-24T11:01:35.645Z,11.30
2019-02-24T11:02:39.273Z,17.27
2019-02-24T11:03:43.006Z,13.50
2019-02-24T11:04:46.619Z,11.78
2019-02-24T11:05:50.252Z,13.72
2019-02-24T11:06:53.860Z,16.17
2019-02-24T11:07:57.445Z,10.43
2019-02-24T11:09:01.077Z,12.43
2019-02-24T11:10:07.212Z,14.10
2019-02-24T11:11:10.864Z,13.80
2019-02-24T11:12:14.482Z,13.93
2019-02-24T11:13:18.096Z,13.13
2019-02-24T11:14:21.747Z,14.38
2019-02-24T11:15:25.340Z,11.60
2019-02-24T11:16:29.032Z,14.28
2019-02-24T11:17:32.623Z,12.15
2019-02-24T11:18:36.207Z,14.70
2019-02-24T11:19:39.842Z,16.00
2019-02-24T11:20:43.517Z,13.85
2019-02-24T11:21:47.194Z,12.33
2019-02-24T11:22:50.788Z,16.90
2019-02-24T11:23:54.422Z,11.60
2019-02-24T11:24:58.009Z,12.30
2019-02-24T11:26:02.530Z,17.60
2019-02-24T11:27:06.160Z,9.38
2019-02-24T11:28:09.753Z,19.15
2019-02-24T11:29:13.376Z,13.22
2019-02-24T11:30:17.088Z,10.50
2019-02-24T11:31:20.707Z,15.38
2019-02-24T11:32:24.324Z,11.45
2019-02-24T11:33:27.973Z,14.05
2019-02-24T11:34:31.586Z,17.10
2019-02-24T11:35:35.256Z,10.88
2019-02-24T11:36:38.907Z,12.90
2019-02-24T11:37:42.541Z,10.98
2019-02-24T11:38:46.134Z,12.43
2019-02-24T11:39:49.751Z,16.50
2019-02-24T11:40:53.386Z,12.40
2019-02-24T11:41:57.067Z,12.30
2019-02-24T11:43:00.697Z,15.38
2019-02-24T11:44:04.362Z,11.33
2019-02-24T11:45:09.237Z,14.98
2019-02-24T11:46:12.822Z,9.20
2019-02-24T11:47:16.456Z,18.25
2019-02-24T11:48:20.068Z,11.93
2019-02-24T11:49:24.146Z,13.48
2019-02-24T11:50:27.767Z,11.53
2019-02-24T11:51:31.378Z,13.55
2019-02-24T11:52:35.019Z,13.78
2019-02-24T11:53:38.606Z,12.10
2019-02-24T11:54:42.235Z,12.63
2019-02-24T11:55:45.895Z,11.43
2019-02-24T11:56:49.473Z,11.43
2019-02-24T11:57:53.064Z,16.30
2019-02-24T11:58:56.705Z,10.98
2019-02-24T12:00:00.390Z,9.83
2019-02-24T12:01:04.028Z,11.40
2019-02-24T12:02:07.744Z,10.90
2019-02-24T12:03:11.350Z,11.80
2019-02-24T12:04:14.942Z,12.03
2019-02-24T12:05:18.702Z,10.40
2019-02-24T12:06:22.327Z,11.50
2019-02-24T12:07:25.911Z,11.70
2019-02-24T12:08:29.508Z,13.32
2019-02-24T12:09:33.182Z,10.40
2019-02-24T12:10:36.877Z,11.35
2019-02-24T12:11:40.544Z,11.45
2019-02-24T12:12:44.175Z,10.90
2019-02-24T12:13:47.844Z,10.72
2019-02-24T12:14:51.494Z,12.07
2019-02-24T12:15:55.107Z,9.40
2019-02-24T12:16:58.742Z,10.87
2019-02-24T12:18:02.317Z,9.63
2019-02-24T12:19:05.930Z,9.77
2019-02-24T12:20:11.485Z,10.23
2019-02-24T12:21:15.110Z,8.23
2019-02-24T12:22:18.730Z,9.73
2019-02-24T12:23:22.329Z,8.93
2019-02-24T12:24:25.917Z,10.40
2019-02-24T12:25:29.530Z,12.60
2019-02-24T12:26:33.115Z,11.23
2019-02-24T12:27:36.753Z,10.10
2019-02-24T12:28:40.414Z,10.13
2019-02-24T12:29:44.006Z,9.27
2019-02-24T12:30:47.627Z,8.90
2019-02-24T12:31:56.610Z,8.90
2019-02-24T12:32:56.554Z,9.20
2019-02-24T12:34:00.193Z,8.80
2019-02-24T12:35:03.979Z,10.77
2019-02-24T12:36:07.706Z,14.20
2019-02-24T12:37:11.325Z,8.77
2019-02-24T12:38:14.938Z,9.50
2019-02-24T12:39:18.704Z,8.13
2019-02-24T12:40:22.271Z,8.43
2019-02-24T12:41:25.963Z,8.83
2019-02-24T12:42:29.614Z,8.47
2019-02-24T12:43:33.208Z,7.40
2019-02-24T12:44:36.802Z,7.83
2019-02-24T12:45:40.411Z,8.07
2019-02-24T12:46:44.001Z,7.70
2019-02-24T12:47:47.646Z,7.07
2019-02-24T12:48:51.348Z,8.37
2019-02-24T12:50:02.928Z,9.57
2019-02-24T12:51:00.307Z,8.77
2019-02-24T12:52:03.991Z,8.87
2019-02-24T12:53:07.616Z,9.37
2019-02-24T12:54:11.231Z,7.40
2019-02-24T12:55:14.995Z,7.10
2019-02-24T12:56:18.630Z,6.80
2019-02-24T12:57:22.266Z,8.43
2019-02-24T12:58:25.865Z,12.17
2019-02-24T12:59:29.562Z,10.50
2019-02-24T13:00:33.344Z,8.93
2019-02-24T13:01:36.930Z,7.47
2019-02-24T13:02:40.599Z,7.30
2019-02-24T13:03:44.280Z,13.07
2019-02-24T13:04:47.862Z,10.10
2019-02-24T13:05:51.582Z,10.20
2019-02-24T13:06:55.175Z,7.80
2019-02-24T13:07:58.819Z,7.63
2019-02-24T13:09:02.422Z,11.00
2019-02-24T13:10:11.371Z,6.90
2019-02-24T13:11:15.005Z,8.13
2019-02-24T13:12:18.608Z,7.00
2019-02-24T13:13:22.163Z,10.30
2019-02-24T13:14:25.758Z,13.63
2019-02-24T13:15:29.403Z,7.63
2019-02-24T13:16:33.001Z,8.40
2019-02-24T13:17:36.598Z,8.83
2019-02-24T13:18:40.398Z,7.03
2019-02-24T13:19:44.017Z,9.17
2019-02-24T13:20:47.616Z,7.80
2019-02-24T13:21:51.218Z,9.33
2019-02-24T13:22:54.888Z,7.30
2019-02-24T13:23:58.533Z,7.83
2019-02-24T13:25:02.106Z,8.07
2019-02-24T13:26:05.778Z,7.37
2019-02-24T13:27:09.459Z,9.83
2019-02-24T13:28:13.239Z,13.50
2019-02-24T13:29:16.884Z,6.67
2019-02-24T13:30:20.490Z,7.80
2019-02-24T13:31:24.055Z,10.13
2019-02-24T13:32:27.653Z,7.97
2019-02-24T13:33:31.260Z,7.80
2019-02-24T13:34:34.988Z,7.77
2019-02-24T13:35:40.511Z,6.83
2019-02-24T13:36:43.834Z,7.30
2019-02-24T13:37:47.482Z,7.90
2019-02-24T13:38:51.207Z,7.90
2019-02-24T13:39:54.830Z,6.93
2019-02-24T13:40:58.428Z,6.80
2019-02-24T13:42:02.041Z,8.50
2019-02-24T13:43:05.678Z,8.87
2019-02-24T13:44:09.309Z,6.90